createdAt,value
2018-12-02T00:01:06.398Z,84.80
2018-12-02T00:03:34.798Z,85.40
2018-12-02T00:06:03.305Z,85.30
2018-12-02T00:08:34.136Z,85.10
2018-12-02T00:11:02.613Z,85.30
2018-12-02T00:13:31.213Z,85.30
2018-12-02T00:15:59.670Z,85.20
2018-12-02T00:18:28.014Z,85.30
2018-12-02T00:20:57.444Z,85.30
2018-12-02T00:23:25.880Z,85.40
2018-12-02T00:25:54.940Z,85.20
2018-12-02T00:28:23.474Z,85.20
2018-12-02T00:30:52.107Z,85.00
2018-12-02T00:33:20.581Z,85.00
2018-12-02T00:35:49.127Z,85.30
2018-12-02T00:38:17.661Z,85.30
2018-12-02T00:40:46.146Z,85.10
2018-12-02T00:43:14.785Z,85.10
2018-12-02T00:45:43.299Z,85.20
2018-12-02T00:48:11.882Z,85.50
2018-12-02T00:50:40.256Z,85.50
2018-12-02T00:53:09.550Z,85.60
2018-12-02T00:55:39.683Z,85.20
2018-12-02T00:58:08.056Z,85.40
2018-12-02T01:00:36.587Z,85.60
2018-12-02T01:03:06.099Z,85.40
2018-12-02T01:05:34.667Z,85.30
2018-12-02T01:08:03.039Z,85.30
2018-12-02T01:10:31.498Z,85.40
2018-12-02T01:13:00.816Z,85.60
2018-12-02T01:15:32.800Z,85.60
2018-12-02T01:18:12.500Z,85.80
2018-12-02T01:20:44.697Z,85.90
2018-12-02T01:23:27.742Z,86.10
2018-12-02T01:26:00.218Z,86.00
2018-12-02T01:28:34.161Z,86.00
2018-12-02T01:31:17.608Z,86.90
2018-12-02T01:34:04.489Z,86.30
2018-12-02T01:36:46.901Z,85.80
2018-12-02T01:39:15.694Z,85.90
2018-12-02T01:41:44.031Z,85.70
2018-12-02T01:44:44.788Z,85.50
2018-12-02T01:47:13.439Z,85.60
2018-12-02T01:49:42.231Z,85.50
2018-12-02T01:52:11.099Z,85.60
2018-12-02T01:54:39.562Z,85.60
2018-12-02T01:57:07.939Z,85.50
2018-12-02T01:59:36.506Z,85.60
2018-12-02T02:02:04.927Z,85.60
2018-12-02T02:04:33.522Z,85.50
2018-12-02T02:07:01.857Z,85.60
2018-12-02T02:09:30.511Z,85.50
2018-12-02T02:11:59.204Z,85.70
2018-12-02T02:14:27.631Z,85.60
2018-12-02T02:16:55.942Z,86.10
2018-12-02T02:19:24.507Z,85.90
2018-12-02T02:21:53.019Z,85.90
2018-12-02T02:24:21.474Z,85.80
2018-12-02T02:26:49.773Z,85.70
2018-12-02T02:29:18.385Z,85.70
2018-12-02T02:31:46.767Z,85.60
2018-12-02T02:34:15.334Z,85.40
2018-12-02T02:36:43.781Z,85.40
2018-12-02T02:39:12.159Z,85.40
2018-12-02T02:41:40.644Z,85.40
2018-12-02T02:44:09.110Z,85.60
2018-12-02T02:46:37.402Z,85.70
2018-12-02T02:49:06.162Z,85.80
2018-12-02T02:51:34.542Z,85.70
2018-12-02T02:54:02.928Z,85.70
2018-12-02T02:56:31.533Z,85.60
2018-12-02T02:58:59.892Z,85.50
2018-12-02T03:01:28.345Z,85.70
2018-12-02T03:03:56.695Z,85.90
2018-12-02T03:06:25.143Z,86.00
2018-12-02T03:08:54.772Z,85.90
2018-12-02T03:11:23.318Z,86.10
2018-12-02T03:13:51.655Z,86.10
2018-12-02T03:16:20.058Z,85.90
2018-12-02T03:18:48.437Z,86.10
2018-12-02T03:21:16.947Z,85.90
2018-12-02T03:23:45.704Z,85.90
2018-12-02T03:26:14.255Z,85.70
2018-12-02T03:28:42.746Z,85.90
2018-12-02T03:31:11.324Z,85.70
2018-12-02T03:33:39.771Z,85.80
2018-12-02T03:36:08.039Z,85.70
2018-12-02T03:38:36.514Z,85.70
2018-12-02T03:41:05.336Z,85.80
2018-12-02T03:43:33.748Z,85.90
2018-12-02T03:46:02.094Z,85.80
2018-12-02T03:48:30.893Z,85.90
2018-12-02T03:50:59.585Z,85.90
2018-12-02T03:53:27.991Z,86.00
2018-12-02T03:55:56.565Z,85.90
2018-12-02T03:58:25.409Z,85.90
2018-12-02T04:00:53.902Z,85.90
2018-12-02T04:03:27.056Z,85.60
2018-12-02T04:05:55.536Z,85.90
2018-12-02T04:08:23.890Z,85.80
2018-12-02T04:10:52.195Z,85.80
2018-12-02T04:13:21.253Z,85.80
2018-12-02T04:15:51.552Z,85.80
2018-12-02T04:18:19.888Z,85.80
2018-12-02T04:20:48.847Z,85.70
2018-12-02T04:23:17.216Z,85.90
2018-12-02T04:25:45.531Z,85.60
2018-12-02T04:28:13.877Z,85.60
2018-12-02T04:30:42.492Z,85.70
2018-12-02T04:33:10.831Z,85.60
2018-12-02T04:35:39.324Z,85.70
2018-12-02T04:38:08.254Z,85.90
2018-12-02T04:40:36.637Z,85.60
2018-12-02T04:43:05.247Z,85.60
2018-12-02T04:45:33.743Z,85.90
2018-12-02T04:48:02.125Z,85.90
2018-12-02T04:50:30.433Z,85.80
2018-12-02T04:52:58.717Z,85.70
2018-12-02T04:55:27.386Z,85.70
2018-12-02T04:57:55.669Z,85.70
2018-12-02T05:00:24.164Z,85.80
2018-12-02T05:02:52.979Z,85.90
2018-12-02T05:05:25.420Z,85.70
2018-12-02T05:07:54.443Z,85.70
2018-12-02T05:10:23.122Z,85.90
2018-12-02T05:12:51.692Z,85.90
2018-12-02T05:15:21.017Z,86.10
2018-12-02T05:17:49.504Z,86.10
2018-12-02T05:20:20.578Z,86.10
2018-12-02T05:22:49.093Z,86.10
2018-12-02T05:25:18.606Z,87.00
2018-12-02T05:27:47.824Z,86.00
2018-12-02T05:30:17.105Z,86.10
2018-12-02T05:32:46.277Z,86.00
2018-12-02T05:35:15.137Z,86.10
2018-12-02T05:37:44.001Z,86.20
2018-12-02T05:40:21.973Z,86.10
2018-12-02T05:42:50.559Z,86.20
2018-12-02T05:45:19.268Z,86.10
2018-12-02T05:47:47.882Z,86.10
2018-12-02T05:50:17.947Z,86.30
2018-12-02T05:52:49.662Z,86.50
2018-12-02T05:55:20.362Z,86.30
2018-12-02T05:57:48.693Z,86.30
2018-12-02T06:00:19.485Z,86.10
2018-12-02T06:02:47.913Z,86.30
2018-12-02T06:05:16.298Z,86.30
2018-12-02T06:07:44.811Z,86.90
2018-12-02T06:10:14.996Z,86.70
2018-12-02T06:12:43.440Z,86.60
2018-12-02T06:15:17.656Z,86.50
2018-12-02T06:17:46.176Z,86.90
2018-12-02T06:20:17.769Z,87.40
2018-12-02T06:22:46.743Z,87.30
2018-12-02T06:25:15.551Z,87.20
2018-12-02T06:27:44.663Z,87.20
2018-12-02T06:30:16.373Z,87.10
2018-12-02T06:33:28.137Z,87.50
2018-12-02T06:36:41.161Z,87.40
2018-12-02T06:39:11.125Z,87.90
2018-12-02T06:41:40.102Z,88.10
2018-12-02T06:44:08.431Z,88.10
2018-12-02T06:46:36.968Z,88.70
2018-12-02T06:49:05.399Z,89.00
2018-12-02T06:51:33.746Z,89.00
2018-12-02T06:54:02.604Z,89.10
2018-12-02T06:56:36.663Z,89.20
2018-12-02T06:59:45.665Z,89.10
2018-12-02T07:02:30.216Z,89.30
2018-12-02T07:04:58.549Z,88.60
2018-12-02T07:07:27.267Z,88.80
2018-12-02T07:09:55.850Z,88.70
2018-12-02T07:12:25.527Z,88.90
2018-12-02T07:14:54.138Z,88.70
2018-12-02T07:17:24.823Z,88.70
2018-12-02T07:19:55.367Z,89.50
2018-12-02T07:22:28.079Z,88.40
2018-12-02T07:25:05.381Z,88.40
2018-12-02T07:27:34.311Z,88.20
2018-12-02T07:30:02.955Z,88.10
2018-12-02T07:32:31.531Z,88.00
2018-12-02T07:35:00.240Z,87.70
2018-12-02T07:37:29.094Z,87.60
2018-12-02T07:40:33.212Z,87.70
2018-12-02T07:43:16.358Z,87.80
2018-12-02T07:45:47.282Z,88.00
2018-12-02T07:48:18.801Z,87.80
2018-12-02T07:50:47.153Z,88.00
2018-12-02T07:53:17.487Z,88.00
2018-12-02T07:55:54.976Z,88.00
2018-12-02T07:58:24.296Z,88.00
2018-12-02T08:00:52.699Z,87.90
2018-12-02T08:03:21.352Z,87.70
2018-12-02T08:05:49.925Z,87.70
2018-12-02T08:08:19.174Z,87.80
2018-12-02T08:11:10.559Z,87.70
2018-12-02T08:13:38.973Z,87.90
2018-12-02T08:16:08.509Z,87.90
2018-12-02T08:22:39.319Z,87.80
2018-12-02T08:25:09.576Z,87.80
2018-12-02T08:27:37.967Z,87.90
2018-12-02T08:30:14.720Z,87.80
2018-12-02T08:32:43.479Z,88.00
2018-12-02T08:35:12.918Z,87.90
2018-12-02T08:37:41.999Z,87.90
2018-12-02T08:40:12.126Z,87.70
2018-12-02T08:42:40.724Z,87.70
2018-12-02T08:45:10.862Z,87.70
2018-12-02T08:47:39.762Z,87.70
2018-12-02T08:50:11.669Z,87.80
2018-12-02T08:52:40.280Z,87.70
2018-12-02T08:55:10.056Z,87.70
2018-12-02T08:57:38.508Z,87.90
2018-12-02T09:00:10.039Z,87.50
2018-12-02T09:02:38.462Z,87.70
2018-12-02T09:05:09.906Z,87.70
2018-12-02T09:07:38.734Z,87.60
2018-12-02T09:10:14.320Z,87.60
2018-12-02T09:12:42.909Z,87.40
2018-12-02T09:15:11.493Z,87.50
2018-12-02T09:17:40.339Z,87.60
2018-12-02T09:20:28.852Z,87.70
2018-12-02T09:22:57.200Z,87.60
2018-12-02T09:25:25.903Z,87.70
2018-12-02T09:27:54.513Z,87.80
2018-12-02T09:30:28.845Z,87.80
2018-12-02T09:32:57.766Z,87.60
2018-12-02T09:35:26.633Z,87.60
2018-12-02T09:37:55.251Z,87.50
2018-12-02T09:40:23.681Z,87.30
2018-12-02T09:42:55.266Z,87.30
2018-12-02T09:45:25.882Z,87.30
2018-12-02T09:47:55.339Z,87.30
2018-12-02T09:50:24.734Z,87.10
2018-12-02T09:52:53.067Z,87.10
2018-12-02T09:55:28.811Z,87.00
2018-12-02T09:57:57.689Z,87.20
2018-12-02T10:00:26.123Z,87.30
2018-12-02T10:02:54.427Z,87.40
2018-12-02T10:05:22.733Z,87.30
2018-12-02T10:07:51.056Z,87.10
2018-12-02T10:10:22.774Z,87.00
2018-12-02T10:12:51.412Z,87.00
2018-12-02T10:15:19.723Z,86.70
2018-12-02T10:17:48.748Z,86.60
2018-12-02T10:20:17.211Z,86.70
2018-12-02T10:22:46.588Z,86.20
2018-12-02T10:25:16.235Z,86.00
2018-12-02T10:27:44.859Z,86.30
2018-12-02T10:30:14.643Z,86.40
2018-12-02T10:32:43.114Z,86.20
2018-12-02T10:35:11.634Z,86.30
2018-12-02T10:37:40.285Z,86.10
2018-12-02T10:40:17.102Z,86.40
2018-12-02T10:42:51.245Z,85.90
2018-12-02T10:45:21.707Z,86.40
2018-12-02T10:47:51.345Z,85.90
2018-12-02T10:50:36.036Z,86.10
2018-12-02T10:53:14.450Z,86.10
2018-12-02T10:55:46.594Z,85.80
2018-12-02T10:58:16.944Z,86.00
2018-12-02T11:00:51.367Z,86.20
2018-12-02T11:03:19.783Z,85.30
2018-12-02T11:05:48.246Z,85.60
2018-12-02T11:08:16.731Z,85.90
2018-12-02T11:10:45.807Z,85.60
2018-12-02T11:13:14.319Z,86.70
2018-12-02T11:15:43.449Z,85.70
2018-12-02T11:18:12.978Z,85.80
2018-12-02T11:20:42.313Z,85.40
2018-12-02T11:23:10.818Z,85.70
2018-12-02T11:25:39.366Z,85.90
2018-12-02T11:28:08.872Z,86.00
2018-12-02T11:30:37.914Z,86.30
2018-12-02T11:33:06.653Z,86.40
2018-12-02T11:35:35.009Z,86.60
2018-12-02T11:38:03.567Z,86.60
2018-12-02T11:40:32.178Z,86.50
2018-12-02T11:43:00.627Z,86.60
2018-12-02T11:45:29.613Z,86.50
2018-12-02T11:47:58.043Z,86.30
2018-12-02T11:50:27.075Z,86.50
2018-12-02T11:52:55.782Z,86.40
2018-12-02T11:55:26.943Z,86.40
2018-12-02T11:57:55.398Z,86.20
2018-12-02T12:00:24.818Z,86.00
2018-12-02T12:02:53.775Z,85.80
2018-12-02T12:05:22.403Z,85.70
2018-12-02T12:07:51.056Z,85.10
2018-12-02T12:10:24.323Z,85.60
2018-12-02T12:12:55.834Z,85.50
2018-12-02T12:15:25.910Z,85.50
2018-12-02T12:17:58.457Z,85.50
2018-12-02T12:20:29.921Z,85.40
2018-12-02T12:22:59.915Z,85.60
2018-12-02T12:25:29.971Z,85.50
2018-12-02T12:27:59.240Z,85.20
2018-12-02T12:30:31.238Z,84.90
2018-12-02T12:32:59.860Z,84.60
2018-12-02T12:35:28.582Z,84.90
2018-12-02T12:38:00.567Z,85.20
2018-12-02T12:40:34.003Z,85.00
2018-12-02T12:43:08.318Z,85.20
2018-12-02T12:45:36.713Z,85.10
2018-12-02T12:48:05.090Z,85.20
2018-12-02T12:50:33.887Z,85.20
2018-12-02T12:53:02.204Z,85.50
2018-12-02T12:55:30.496Z,85.30
2018-12-02T12:57:59.970Z,85.30
2018-12-02T13:00:37.534Z,85.30
2018-12-02T13:03:06.631Z,85.20
2018-12-02T13:05:35.255Z,85.00
2018-12-02T13:08:03.768Z,84.90
2018-12-02T13:10:32.494Z,84.70
2018-12-02T13:13:05.727Z,84.80
2018-12-02T13:15:34.179Z,84.60
2018-12-02T13:18:03.591Z,84.40
2018-12-02T13:20:34.676Z,84.50
2018-12-02T13:23:03.430Z,84.80
2018-12-02T13:25:32.278Z,84.80
2018-12-02T13:28:01.197Z,84.80
2018-12-02T13:30:30.087Z,84.50
2018-12-02T13:32:59.125Z,84.60
2018-12-02T13:35:27.653Z,84.40
2018-12-02T13:37:56.197Z,84.50
2018-12-02T13:40:24.854Z,84.40
2018-12-02T13:42:58.432Z,83.50
2018-12-02T13:45:27.958Z,84.00
2018-12-02T13:47:56.281Z,84.10
2018-12-02T13:50:24.699Z,84.10
2018-12-02T13:52:54.176Z,84.10
2018-12-02T13:55:28.970Z,83.80
2018-12-02T13:57:57.567Z,84.10
2018-12-02T14:00:26.524Z,84.10
2018-12-02T14:03:06.011Z,84.10
2018-12-02T14:05:34.608Z,84.00
2018-12-02T14:08:02.882Z,84.10
2018-12-02T14:10:32.505Z,84.40
2018-12-02T14:13:03.182Z,84.30
2018-12-02T14:15:56.150Z,83.90
2018-12-02T14:18:35.998Z,84.30
2018-12-02T14:21:04.856Z,84.10
2018-12-02T14:23:33.531Z,83.90
2018-12-02T14:26:06.691Z,84.20
2018-12-02T14:28:44.727Z,84.10
2018-12-02T14:31:13.107Z,84.00
2018-12-02T14:33:41.379Z,84.10
2018-12-02T14:36:09.675Z,84.30
2018-12-02T14:38:38.303Z,84.00
2018-12-02T14:41:07.071Z,84.30
2018-12-02T14:43:36.989Z,84.10
2018-12-02T14:46:05.660Z,84.30
2018-12-02T14:48:33.938Z,84.40
2018-12-02T14:51:02.527Z,83.70
2018-12-02T14:53:32.649Z,83.80
2018-12-02T14:56:00.988Z,83.70
2018-12-02T14:58:29.308Z,84.20
2018-12-02T15:00:57.662Z,84.00
2018-12-02T15:03:26.012Z,83.70
2018-12-02T15:05:54.392Z,83.80
2018-12-02T15:08:23.075Z,83.90
2018-12-02T15:10:51.486Z,84.10
2018-12-02T15:13:19.864Z,84.40
2018-12-02T15:15:48.611Z,84.30
2018-12-02T15:18:17.644Z,84.40
2018-12-02T15:20:46.076Z,84.70
2018-12-02T15:23:15.157Z,84.50
2018-12-02T15:25:43.446Z,84.50
2018-12-02T15:28:11.953Z,84.50
2018-12-02T15:30:40.289Z,84.60
2018-12-02T15:33:08.578Z,84.50
2018-12-02T15:35:38.227Z,84.30
2018-12-02T15:38:06.923Z,84.30
2018-12-02T15:40:35.390Z,84.10
2018-12-02T15:43:03.687Z,84.00
2018-12-02T15:45:31.991Z,83.60
2018-12-02T15:48:00.435Z,83.80
2018-12-02T15:50:28.943Z,83.90
2018-12-02T15:52:57.368Z,83.40
2018-12-02T15:55:28.888Z,83.30
2018-12-02T15:57:57.780Z,82.60
2018-12-02T16:00:32.506Z,82.60
2018-12-02T16:03:01.816Z,83.10
2018-12-02T16:05:30.118Z,83.10
2018-12-02T16:07:58.443Z,83.10
2018-12-02T16:10:26.887Z,83.40
2018-12-02T16:12:55.482Z,83.40
2018-12-02T16:15:26.189Z,83.10
2018-12-02T16:17:55.750Z,83.50
2018-12-02T16:20:31.310Z,83.60
2018-12-02T16:22:59.979Z,83.50
2018-12-02T16:25:28.796Z,83.30
2018-12-02T16:27:57.482Z,83.30
2018-12-02T16:30:32.840Z,83.30
2018-12-02T16:57:14.250Z,83.30
2018-12-02T17:05:16.252Z,83.00
2018-12-02T17:12:26.811Z,82.80
2018-12-02T17:15:06.283Z,82.70
2018-12-02T17:17:38.428Z,83.00
2018-12-02T17:20:17.710Z,82.90
2018-12-02T17:22:52.530Z,82.60
2018-12-02T17:25:30.489Z,82.50
2018-12-02T17:28:02.599Z,82.40
2018-12-02T17:30:38.312Z,82.80
2018-12-02T17:33:11.776Z,82.80
2018-12-02T17:35:42.796Z,82.70
2018-12-02T17:38:13.802Z,83.10
2018-12-02T17:40:44.304Z,82.40
2018-12-02T17:43:20.785Z,82.70
2018-12-02T17:45:52.451Z,82.50
2018-12-02T17:48:24.962Z,82.50
2018-12-02T17:50:59.654Z,82.50
2018-12-02T17:53:29.639Z,82.40
2018-12-02T17:56:01.808Z,82.10
2018-12-02T17:58:33.127Z,82.70
2018-12-02T18:01:05.560Z,82.50
2018-12-02T18:03:35.325Z,82.10
2018-12-02T18:06:11.947Z,82.10
2018-12-02T18:08:41.760Z,81.90
2018-12-02T18:11:12.301Z,82.20
2018-12-02T18:13:42.951Z,82.10
2018-12-02T18:16:13.039Z,82.70
2018-12-02T18:18:43.944Z,82.70
2018-12-02T18:21:13.108Z,83.00
2018-12-02T18:23:42.586Z,83.20
2018-12-02T18:26:14.542Z,83.40
2018-12-02T18:28:46.418Z,83.70
2018-12-02T18:31:15.890Z,83.80
2018-12-02T18:33:46.037Z,84.00
2018-12-02T18:36:19.530Z,83.80
2018-12-02T18:38:51.937Z,83.80
2018-12-02T18:41:34.722Z,84.00
2018-12-02T18:44:06.157Z,84.00
2018-12-02T18:46:38.320Z,84.10
2018-12-02T18:49:07.754Z,84.20
2018-12-02T18:51:37.124Z,84.10
2018-12-02T18:54:07.756Z,84.10
2018-12-02T18:56:38.008Z,84.20
2018-12-02T18:59:07.427Z,84.30
2018-12-02T19:02:31.441Z,84.20
2018-12-02T19:04:59.836Z,84.10
2018-12-02T19:07:28.183Z,83.80
2018-12-02T19:09:56.510Z,84.00
2018-12-02T19:12:25.520Z,84.20
2018-12-02T19:14:54.285Z,84.00
2018-12-02T19:17:23.226Z,84.10
2018-12-02T19:19:51.545Z,84.10
2018-12-02T19:22:19.884Z,84.10
2018-12-02T19:24:48.219Z,84.10
2018-12-02T19:27:16.614Z,83.90
2018-12-02T19:29:46.248Z,83.80
2018-12-02T19:32:14.567Z,83.60
2018-12-02T19:34:43.182Z,83.50
2018-12-02T19:37:12.790Z,83.30
2018-12-02T19:39:41.103Z,83.20
2018-12-02T19:42:09.414Z,83.50
2018-12-02T19:44:38.278Z,83.50
2018-12-02T19:47:06.661Z,83.30
2018-12-02T19:49:36.134Z,83.40
2018-12-02T19:52:03.483Z,83.50
2018-12-02T19:54:32.221Z,83.70
2018-12-02T19:57:00.532Z,83.90
2018-12-02T19:59:28.870Z,84.00
2018-12-02T20:01:57.295Z,84.10
2018-12-02T20:04:26.218Z,84.10
2018-12-02T20:06:54.573Z,84.30
2018-12-02T20:09:23.445Z,85.30
2018-12-02T20:11:51.743Z,84.40
2018-12-02T20:14:20.060Z,84.60
2018-12-02T20:16:48.476Z,84.70
2018-12-02T20:19:22.257Z,84.90
2018-12-02T20:21:50.669Z,85.10
2018-12-02T20:24:24.422Z,85.40
2018-12-02T20:26:52.826Z,85.50
2018-12-02T20:29:21.162Z,85.90
2018-12-02T20:31:49.625Z,85.60
2018-12-02T20:34:18.004Z,85.70
2018-12-02T20:36:46.469Z,85.80
2018-12-02T20:39:14.943Z,85.80
2018-12-02T20:41:43.346Z,86.10
2018-12-02T20:44:11.632Z,86.70
2018-12-02T20:46:40.079Z,85.80
2018-12-02T20:49:09.119Z,85.80
2018-12-02T20:51:37.450Z,86.00
2018-12-02T20:54:06.373Z,86.10
2018-12-02T20:56:34.982Z,86.20
2018-12-02T20:59:03.337Z,85.90
2018-12-02T21:01:31.624Z,86.90
2018-12-02T21:04:00.156Z,86.00
2018-12-02T21:06:28.559Z,86.20
2018-12-02T21:08:58.091Z,86.10
2018-12-02T21:11:26.404Z,86.10
2018-12-02T21:13:55.391Z,86.10
2018-12-02T21:16:24.120Z,86.10
2018-12-02T21:18:52.497Z,86.00
2018-12-02T21:21:21.823Z,86.20
2018-12-02T21:23:51.098Z,86.00
2018-12-02T21:26:19.486Z,85.80
2018-12-02T21:28:56.392Z,85.80
2018-12-02T21:31:24.780Z,85.80
2018-12-02T21:33:54.334Z,85.80
2018-12-02T21:36:22.695Z,85.90
2018-12-02T21:38:54.683Z,85.80
2018-12-02T21:41:23.109Z,85.90
2018-12-02T21:43:56.539Z,85.80
2018-12-02T21:46:24.942Z,85.80
2018-12-02T21:48:55.525Z,85.90
2018-12-02T21:51:26.617Z,85.90
2018-12-02T21:53:58.907Z,85.80
2018-12-02T21:56:27.863Z,85.90
2018-12-02T21:58:57.339Z,85.90
2018-12-02T22:01:28.538Z,85.60
2018-12-02T22:03:59.015Z,85.70
2018-12-02T22:06:30.478Z,85.50
2018-12-02T22:09:03.930Z,85.60
2018-12-02T22:11:34.033Z,85.50
2018-12-02T22:14:11.040Z,85.60
2018-12-02T22:16:39.344Z,85.70
2018-12-02T22:19:08.792Z,85.90
2018-12-02T22:21:40.537Z,85.90
2018-12-02T22:28:04.879Z,85.80
2018-12-02T22:30:46.249Z,85.90
2018-12-02T22:36:22.068Z,85.50
2018-12-02T22:39:02.113Z,85.60
2018-12-02T22:41:37.802Z,85.90
2018-12-02T22:44:10.227Z,85.60
2018-12-02T22:49:26.676Z,85.60
2018-12-02T22:51:57.872Z,85.70
2018-12-02T22:54:28.178Z,85.50
2018-12-02T22:56:58.258Z,85.60
2018-12-02T22:59:29.760Z,85.40
2018-12-02T23:02:05.303Z,85.40
2018-12-02T23:04:35.113Z,85.70
2018-12-02T23:07:05.604Z,85.50
2018-12-02T23:09:36.303Z,85.50
2018-12-02T23:12:07.300Z,85.60
2018-12-02T23:14:37.588Z,85.30
2018-12-02T23:17:22.778Z,85.40
2018-12-02T23:19:53.182Z,84.90
2018-12-02T23:22:23.700Z,85.00
2018-12-02T23:24:54.775Z,85.20
2018-12-02T23:27:24.808Z,85.20
2018-12-02T23:29:55.450Z,85.20
2018-12-02T23:32:25.635Z,85.00
2018-12-02T23:34:56.094Z,85.20
2018-12-02T23:37:27.244Z,85.20
2018-12-02T23:39:57.435Z,85.00
2018-12-02T23:42:28.651Z,85.10
2018-12-02T23:44:58.834Z,85.30
2018-12-02T23:47:30.243Z,85.20
2018-12-02T23:50:01.021Z,85.20
2018-12-02T23:52:31.777Z,85.10
2018-12-02T23:55:01.533Z,85.10
2018-12-02T23:57:32.118Z,85.00
